Time;durP1;ratioP1;P1;durP2;ratioP2;P2;SDS_P1;SDS_P2;PMS_P1;PMS_P2;Temp;Humidity;BMP_temperature;BMP_pressure;BME280_temperature;BME280_humidity;BME280_pressure;Samples;Min_cycle;Max_cycle;Signal;HPM_P1;HPM_P2
2023/04/25 00:00:18;;;;;;;4.80;3.30;;;;;;;17.50;43.15;99048.14;104291;1273;61055;-65
2023/04/25 00:02:46;;;;;;;3.90;3.50;;;;;;;17.60;42.80;99046.81;104286;1255;60200;-66
2023/04/25 00:05:14;;;;;;;4.10;3.60;;;;;;;17.63;43.08;99041.23;104214;1256;72068;-66
2023/04/25 00:07:42;;;;;;;5.80;3.80;;;;;;;17.64;43.56;99038.31;104368;1256;69237;-65
2023/04/25 00:10:10;;;;;;;3.50;3.20;;;;;;;17.68;43.50;99036.42;104253;1275;71946;-65
2023/04/25 00:12:38;;;;;;;4.30;3.70;;;;;;;17.66;42.40;99033.86;104399;1264;60364;-65
2023/04/25 00:15:06;;;;;;;;;;;;;;;17.63;42.73;99030.27;104393;1269;60264;-65
2023/04/25 00:17:32;;;;;;;3.10;2.80;;;;;;;17.62;43.51;99028.00;104288;1256;73288;-63
2023/04/25 00:19:59;;;;;;;4.10;3.30;;;;;;;17.55;42.93;99025.98;104233;1256;68570;-66
2023/04/25 00:22:26;;;;;;;3.90;2.90;;;;;;;17.61;42.61;99019.59;104363;1259;72095;-66
2023/04/25 00:24:57;;;;;;;3.10;2.80;;;;;;;17.61;42.68;99020.89;104336;1255;60417;-66
2023/04/25 00:27:23;;;;;;;3.20;2.90;;;;;;;17.61;42.40;99020.63;104305;1257;59720;-67
2023/04/25 00:29:50;;;;;;;4.90;3.00;;;;;;;17.64;42.42;99019.02;104321;1257;73869;-66
2023/04/25 00:32:17;;;;;;;3.30;3.00;;;;;;;17.64;42.74;99020.73;104336;1257;68604;-66
2023/04/25 00:34:44;;;;;;;3.50;2.90;;;;;;;17.59;42.93;99018.56;104219;1274;72448;-67
2023/04/25 00:37:12;;;;;;;3.10;2.70;;;;;;;17.59;42.83;99016.20;104392;1253;61189;-66
2023/04/25 00:39:39;;;;;;;;;;;;;;;17.53;42.99;99016.02;104321;1256;59641;-66
2023/04/25 00:42:06;;;;;;;3.00;2.30;;;;;;;17.45;43.57;99016.27;104398;1256;72363;-67
2023/04/25 00:44:33;;;;;;;6.00;3.00;;;;;;;17.37;43.68;99012.70;104289;1269;68709;-67
2023/04/25 00:47:01;;;;;;;4.40;2.90;;;;;;;17.33;43.88;99008.60;104327;1258;71925;-67
2023/04/25 00:49:29;;;;;;;3.70;3.00;;;;;;;17.28;43.94;99008.80;104241;1271;61083;-68
2023/04/25 00:51:56;;;;;;;3.10;2.90;;;;;;;17.28;44.52;99006.13;104290;1256;60363;-66
2023/04/25 00:54:23;;;;;;;4.60;3.20;;;;;;;17.25;44.18;99009.27;104406;1253;72250;-67
2023/04/25 00:56:50;;;;;;;3.50;3.10;;;;;;;17.36;44.22;99014.18;104244;1257;70238;-67
2023/04/25 00:59:16;;;;;;;3.30;3.00;;;;;;;17.59;43.51;99018.52;104233;1260;72390;-67
2023/04/25 01:01:44;;;;;;;5.30;3.40;;;;;;;17.63;43.23;99017.16;104434;1276;60982;-67
2023/04/25 01:04:11;;;;;;;5.90;3.30;;;;;;;17.68;42.96;99018.86;104350;1254;59724;-66
2023/04/25 01:06:38;;;;;;;5.30;4.50;;;;;;;17.72;43.22;99017.33;104249;1261;72827;-67
2023/04/25 01:09:05;;;;;;;4.60;4.20;;;;;;;17.68;43.15;99011.05;104335;1263;69622;-67
2023/04/25 01:11:32;;;;;;;4.00;3.70;;;;;;;17.62;43.06;99012.58;104340;1270;72051;-67
2023/04/25 01:14:00;;;;;;;7.10;4.30;;;;;;;17.63;43.27;99007.19;104310;1266;62068;-66
2023/04/25 01:16:28;;;;;;;5.60;3.80;;;;;;;17.61;43.43;99001.70;104297;1264;60879;-67
2023/04/25 01:18:55;;;;;;;4.00;3.60;;;;;;;17.59;43.10;99000.23;104391;1272;72399;-66
2023/04/25 01:21:22;;;;;;;3.80;3.40;;;;;;;17.54;43.00;98995.23;104286;1257;68731;-65
2023/04/25 01:23:49;;;;;;;4.00;3.60;;;;;;;17.34;43.73;98990.21;104430;1260;72880;-66
2023/04/25 01:26:17;;;;;;;3.80;3.20;;;;;;;17.19;44.65;98991.30;104371;1266;62049;-66
2023/04/25 01:28:45;;;;;;;4.40;3.50;;;;;;;17.17;44.75;98997.14;104375;1273;59631;-68
2023/04/25 01:31:12;;;;;;;3.50;3.20;;;;;;;17.13;45.00;98994.75;104236;1256;73514;-68
2023/04/25 01:33:39;;;;;;;3.90;3.30;;;;;;;17.08;44.71;98992.49;104302;1260;70042;-67
2023/04/25 01:36:06;;;;;;;4.30;3.50;;;;;;;17.06;44.97;98987.91;104253;1270;71520;-69
2023/04/25 01:38:35;;;;;;;3.70;3.40;;;;;;;17.19;45.09;98987.01;104308;1257;61465;-67
2023/04/25 01:41:02;;;;;;;3.30;3.00;;;;;;;17.01;44.98;98982.44;104061;1268;60674;-69
2023/04/25 01:43:29;;;;;;;3.20;3.00;;;;;;;17.06;44.39;98981.56;104429;1267;73578;-66
2023/04/25 01:45:56;;;;;;;3.30;2.90;;;;;;;16.95;45.08;98985.39;104474;1259;69933;-67
2023/04/25 01:48:23;;;;;;;3.20;2.80;;;;;;;17.08;44.27;98983.01;104479;1254;71637;-66
2023/04/25 01:50:51;;;;;;;3.30;3.00;;;;;;;17.16;44.23;98986.90;104279;1254;61959;-66
2023/04/25 01:53:18;;;;;;;3.60;3.00;;;;;;;17.17;44.60;98986.48;104268;1254;59740;-67
2023/04/25 01:55:45;;;;;;;6.30;3.70;;;;;;;17.15;44.50;98983.95;104359;1255;73218;-67
2023/04/25 01:58:15;;;;;;;3.60;3.30;;;;;;;17.17;44.55;98991.42;104268;1269;69912;-67
2023/04/25 02:01:01;;;;;;;3.50;3.20;;;;;;;17.13;45.18;98986.80;104275;1257;71929;-67
2023/04/25 02:03:31;;;;;;;3.50;3.20;;;;;;;17.07;44.76;98985.54;104328;1268;62255;-66
2023/04/25 02:05:59;;;;;;;3.00;2.80;;;;;;;17.03;44.92;98984.80;104342;1275;59684;-70
2023/04/25 02:08:27;;;;;;;3.80;3.40;;;;;;;17.01;45.00;98979.98;104282;1263;73700;-70
2023/04/25 02:10:54;;;;;;;;;;;;;;;16.99;45.04;98981.21;104345;1257;71979;-69
2023/04/25 02:13:23;;;;;;;3.10;2.80;;;;;;;16.99;44.98;98982.66;104388;1256;71926;-66
2023/04/25 02:16:03;;;;;;;3.50;3.20;;;;;;;16.91;45.28;98983.73;104214;1265;60963;-69
2023/04/25 02:18:31;;;;;;;2.90;2.60;;;;;;;16.89;44.92;98980.05;104471;1259;60654;-68
2023/04/25 02:20:59;;;;;;;4.30;3.40;;;;;;;16.89;44.36;98977.38;104291;1268;72889;-66
2023/04/25 02:23:27;;;;;;;4.20;2.80;;;;;;;16.87;44.93;98982.86;104396;1257;69298;-67
2023/04/25 02:25:55;;;;;;;3.10;2.50;;;;;;;16.83;44.98;98974.52;104383;1259;72308;-67
2023/04/25 02:28:23;;;;;;;3.10;2.80;;;;;;;16.81;44.96;98979.77;104701;1260;62404;-66
2023/04/25 02:30:50;;;;;;;3.10;2.70;;;;;;;16.77;45.22;98979.35;104494;1254;61071;-67
2023/04/25 02:33:17;;;;;;;4.00;3.10;;;;;;;16.77;44.94;98980.10;104438;1255;72430;-67
2023/04/25 02:35:44;;;;;;;5.00;2.60;;;;;;;16.75;45.01;98973.48;104311;1259;69256;-67
2023/04/25 02:38:11;;;;;;;3.10;2.80;;;;;;;16.80;45.30;98976.02;104625;1259;71595;-67
2023/04/25 02:40:40;;;;;;;3.40;3.10;;;;;;;16.74;45.32;98981.54;104585;1257;62311;-67
2023/04/25 02:43:07;;;;;;;4.30;3.20;;;;;;;16.67;45.08;98977.45;104343;1264;60444;-66
2023/04/25 02:45:35;;;;;;;3.30;3.10;;;;;;;16.64;45.50;98977.91;104296;1257;73952;-68
2023/04/25 02:48:02;;;;;;;4.20;3.30;;;;;;;16.58;45.43;98974.29;104607;1256;69208;-66
2023/04/25 02:50:32;;;;;;;6.90;3.60;;;;;;;16.57;45.80;98970.86;104295;1256;73615;-66
2023/04/25 02:52:59;;;;;;;4.70;3.70;;;;;;;16.52;46.15;98973.70;104447;1258;61668;-66
2023/04/25 02:55:30;;;;;;;6.60;3.90;;;;;;;16.55;46.00;98980.72;104257;1260;60561;-67
2023/04/25 02:57:57;;;;;;;3.80;3.10;;;;;;;16.53;45.88;98978.00;104472;1257;73297;-67
2023/04/25 03:00:36;;;;;;;3.90;3.50;;;;;;;16.52;45.89;98981.27;105942;1261;70224;-67
2023/04/25 03:03:03;;;;;;;4.00;3.60;;;;;;;16.57;45.83;98983.58;108221;1252;71463;-67
2023/04/25 03:05:30;;;;;;;3.50;3.20;;;;;;;16.57;46.36;98982.02;108474;1254;61339;-70
2023/04/25 03:07:57;;;;;;;3.80;3.50;;;;;;;16.58;46.47;98982.27;108168;1253;59392;-68
2023/04/25 03:10:24;;;;;;;4.10;3.70;;;;;;;16.58;46.85;98985.66;104899;1254;75347;-66
2023/04/25 03:12:51;;;;;;;3.90;3.50;;;;;;;16.55;46.90;98987.13;104568;1254;70030;-67
2023/04/25 03:15:19;;;;;;;3.70;3.40;;;;;;;16.53;46.90;98980.19;107830;1254;72118;-67
2023/04/25 03:17:46;;;;;;;5.40;3.40;;;;;;;16.54;47.00;98981.33;104419;1272;61317;-67
2023/04/25 03:20:13;;;;;;;4.20;3.60;;;;;;;16.51;47.25;98980.29;104530;1261;60427;-67
2023/04/25 03:22:41;;;;;;;4.20;3.80;;;;;;;16.46;47.31;98977.54;104430;1259;72917;-66
2023/04/25 03:25:08;;;;;;;7.10;3.80;;;;;;;16.47;47.50;98974.67;104347;1263;69637;-67
2023/04/25 03:27:35;;;;;;;4.30;3.70;;;;;;;16.55;47.65;98975.25;104463;1256;73062;-67
2023/04/25 03:30:02;;;;;;;4.60;4.10;;;;;;;16.61;47.64;98976.36;104678;1257;60619;-67
2023/04/25 03:32:30;;;;;;;4.70;4.30;;;;;;;16.65;47.75;98978.16;104385;1260;60432;-67
2023/04/25 03:34:57;;;;;;;4.90;3.90;;;;;;;16.70;47.78;98980.80;104560;1252;73367;-67
2023/04/25 03:37:25;;;;;;;6.60;3.80;;;;;;;16.72;47.69;98977.63;104388;1256;69456;-67
2023/04/25 03:39:52;;;;;;;4.10;3.70;;;;;;;16.78;47.85;98975.73;104364;1273;72034;-67
2023/04/25 03:42:19;;;;;;;5.80;4.00;;;;;;;16.83;47.83;98974.48;104439;1255;61127;-68
2023/04/25 03:44:46;;;;;;;4.20;3.90;;;;;;;16.90;47.83;98973.09;104456;1259;59968;-68
2023/04/25 03:47:14;;;;;;;4.70;4.30;;;;;;;16.94;48.02;98975.24;104506;1260;73435;-67
2023/04/25 03:49:41;;;;;;;4.80;4.30;;;;;;;16.96;48.13;98972.98;104375;1267;69208;-66
2023/04/25 03:52:08;;;;;;;4.30;3.90;;;;;;;16.98;47.72;98974.05;104417;1269;71772;-66
2023/04/25 03:54:38;;;;;;;4.20;3.80;;;;;;;17.03;47.80;98973.26;104440;1255;61283;-67
2023/04/25 03:57:08;;;;;;;4.00;3.60;;;;;;;17.09;47.77;98967.30;104436;1254;60054;-66
2023/04/25 03:59:37;;;;;;;4.10;3.70;;;;;;;17.12;47.85;98972.91;104395;1255;73536;-69
2023/04/25 04:02:05;;;;;;;4.20;3.80;;;;;;;17.18;47.86;98975.96;104409;1270;71335;-66
2023/04/25 04:04:35;;;;;;;3.90;3.50;;;;;;;17.27;47.59;98975.39;104308;1257;72922;-68
2023/04/25 04:07:03;;;;;;;3.80;3.50;;;;;;;17.39;47.17;98976.77;104519;1254;61697;-67
2023/04/25 04:09:34;;;;;;;4.00;3.60;;;;;;;17.51;46.97;98978.97;104453;1253;60454;-70
2023/04/25 04:12:04;;;;;;;4.20;3.50;;;;;;;17.63;46.58;98971.91;104390;1261;73936;-67
2023/04/25 04:14:33;;;;;;;4.90;3.60;;;;;;;17.72;46.45;98971.56;104623;1258;68734;-67
2023/04/25 04:17:00;;;;;;;5.40;4.00;;;;;;;17.78;46.15;98967.55;104698;1257;71829;-66
2023/04/25 04:19:28;;;;;;;3.90;3.60;;;;;;;17.89;46.12;98970.56;104501;1268;61584;-66
2023/04/25 04:22:18;;;;;;;2.90;2.70;;;;;;;17.99;46.18;98967.02;104285;1254;60447;-67
2023/04/25 04:24:46;;;;;;;5.70;3.60;;;;;;;18.03;46.18;98965.41;104400;1255;74005;-66
2023/04/25 04:27:20;;;;;;;3.60;3.20;;;;;;;18.11;46.68;98961.81;104565;1263;68952;-66
2023/04/25 04:30:13;;;;;;;3.40;3.10;;;;;;;18.21;47.04;98960.40;104228;1270;72341;-66
2023/04/25 04:32:56;;;;;;;4.60;3.10;;;;;;;18.29;46.28;98955.27;104405;1254;62056;-67
2023/04/25 04:35:23;;;;;;;4.00;3.60;;;;;;;18.37;45.87;98957.25;104446;1270;61352;-66
2023/04/25 04:37:50;;;;;;;3.10;2.80;;;;;;;18.46;45.44;98957.02;104264;1259;72712;-66
2023/04/25 04:40:18;;;;;;;4.10;3.10;;;;;;;18.56;45.50;98957.39;104375;1260;70223;-66
2023/04/25 04:42:56;;;;;;;6.50;3.40;;;;;;;18.66;45.33;98959.16;104311;1270;72181;-65
2023/04/25 04:45:43;;;;;;;4.50;2.90;;;;;;;18.80;45.77;98964.22;104308;1264;61501;-66
2023/04/25 04:48:36;;;;;;;3.80;3.10;;;;;;;18.93;45.46;98960.74;104272;1257;60655;-65
2023/04/25 04:51:25;;;;;;;3.70;3.30;;;;;;;19.00;45.47;98957.62;104402;1259;73303;-69
2023/04/25 04:54:05;;;;;;;5.00;3.10;;;;;;;19.08;45.78;98959.96;104300;1273;68908;-68
2023/04/25 04:57:04;;;;;;;3.50;3.10;;;;;;;19.17;46.28;98957.80;104115;1254;72961;-69
2023/04/25 04:59:52;;;;;;;3.70;3.30;;;;;;;19.25;45.58;98954.49;104163;1273;61423;-68
2023/04/25 05:02:55;;;;;;;4.40;3.40;;;;;;;19.38;45.83;98955.70;104180;1263;60805;-65
2023/04/25 05:05:41;;;;;;;4.30;3.90;;;;;;;19.47;45.07;98950.29;104398;1256;74343;-64
2023/04/25 05:08:27;;;;;;;4.00;3.60;;;;;;;19.53;44.96;98949.40;104334;1257;69715;-67
2023/04/25 05:11:14;;;;;;;3.30;3.00;;;;;;;19.62;44.79;98949.02;104086;1276;72074;-65
2023/04/25 05:13:56;;;;;;;4.10;3.70;;;;;;;19.69;44.68;98947.56;104596;1257;62102;-65
2023/04/25 05:16:45;;;;;;;5.50;3.60;;;;;;;19.73;44.95;98940.23;104421;1257;60686;-65
2023/04/25 05:19:42;;;;;;;4.10;3.70;;;;;;;19.85;44.47;98941.34;104012;1254;73278;-65
2023/04/25 05:22:38;;;;;;;3.30;3.00;;;;;;;19.96;44.00;98937.84;104110;1260;69345;-64
2023/04/25 05:25:12;;;;;;;4.20;3.40;;;;;;;20.03;43.78;98942.46;104553;1254;71672;-64
2023/04/25 05:28:20;;;;;;;3.60;3.30;;;;;;;20.13;43.72;98933.04;104146;1272;61591;-65
2023/04/25 05:31:13;;;;;;;3.20;2.80;;;;;;;20.23;43.80;98935.80;103972;1267;61271;-68
2023/04/25 05:34:01;;;;;;;;;;;;;;;20.32;43.66;98935.65;104620;1254;73144;-64
2023/04/25 05:36:39;;;;;;;3.30;3.00;;;;;;;20.46;43.35;98935.84;104691;1260;69742;-64
2023/04/25 05:39:06;;;;;;;3.20;3.00;;;;;;;20.51;43.07;98936.38;104527;1254;72617;-67
2023/04/25 05:42:07;;;;;;;3.20;2.90;;;;;;;20.67;43.05;98937.08;104496;1255;61841;-66
2023/04/25 05:44:53;;;;;;;4.50;3.10;;;;;;;20.79;42.48;98930.32;105349;1256;60459;-67
2023/04/25 05:47:43;;;;;;;3.70;2.60;;;;;;;20.91;42.21;98932.01;104265;1269;73495;-70
2023/04/25 05:50:20;;;;;;;2.90;2.50;;;;;;;21.02;41.60;98931.16;104239;1257;69408;-67
2023/04/25 05:53:11;;;;;;;4.00;2.40;;;;;;;21.16;41.03;98928.20;104050;1264;74178;-70
2023/04/25 05:55:40;;;;;;;2.30;2.10;;;;;;;21.30;41.34;98930.02;104311;1254;62112;-68
2023/04/25 05:58:25;;;;;;;5.10;2.40;;;;;;;21.44;40.93;98926.50;104383;1256;60207;-68
2023/04/25 06:00:54;;;;;;;3.10;2.50;;;;;;;21.52;40.66;98922.50;104668;1254;72756;-68
2023/04/25 06:03:21;;;;;;;2.20;2.10;;;;;;;21.59;40.47;98920.39;104456;1260;69566;-67
2023/04/25 06:05:48;;;;;;;3.50;2.10;;;;;;;21.66;40.38;98922.50;104702;1266;73147;-67
2023/04/25 06:08:17;;;;;;;2.80;1.90;;;;;;;21.78;40.00;98917.75;104313;1264;62988;-67
2023/04/25 06:10:44;;;;;;;2.40;2.20;;;;;;;21.84;39.82;98923.55;104241;1264;60554;-67
2023/04/25 06:13:11;;;;;;;3.70;2.60;;;;;;;21.91;39.56;98924.27;104358;1260;74103;-68
2023/04/25 06:15:38;;;;;;;3.20;1.90;;;;;;;22.02;39.17;98918.60;104227;1259;68983;-66
2023/04/25 06:18:05;;;;;;;4.80;2.10;;;;;;;22.19;38.89;98914.75;104516;1260;72533;-68
2023/04/25 06:20:33;;;;;;;4.50;2.10;;;;;;;22.27;37.90;98911.89;104259;1259;61343;-70
2023/04/25 06:23:00;;;;;;;2.30;1.60;;;;;;;22.35;37.66;98909.09;104553;1253;60566;-70
2023/04/25 06:25:50;;;;;;;2.80;1.80;;;;;;;22.50;37.28;98905.29;104423;1255;74160;-70
2023/04/25 06:28:17;;;;;;;3.20;1.80;;;;;;;22.57;37.08;98904.77;104522;1253;69219;-69
2023/04/25 06:30:44;;;;;;;2.30;2.10;;;;;;;22.66;37.61;98898.39;104286;1256;72116;-69
2023/04/25 06:33:14;;;;;;;2.20;2.00;;;;;;;22.77;36.95;98896.02;104536;1253;60542;-69
2023/04/25 06:35:41;;;;;;;1.90;1.70;;;;;;;22.83;36.43;98893.55;104363;1257;60453;-65
2023/04/25 06:38:10;;;;;;;4.20;1.90;;;;;;;22.94;36.17;98893.15;104451;1257;73003;-66
2023/04/25 06:40:38;;;;;;;2.70;1.90;;;;;;;23.02;35.76;98891.73;104343;1256;68801;-65
2023/04/25 06:43:05;;;;;;;2.00;1.70;;;;;;;23.10;35.43;98895.56;104392;1260;73132;-67
2023/04/25 06:45:42;;;;;;;3.80;1.90;;;;;;;23.21;35.79;98895.51;104494;1264;60524;-66
2023/04/25 06:48:10;;;;;;;2.30;2.10;;;;;;;23.29;35.78;98893.88;104709;1254;60446;-65
2023/04/25 06:50:37;;;;;;;2.90;2.10;;;;;;;23.39;35.50;98895.56;104736;1265;73645;-65
2023/04/25 06:53:04;;;;;;;2.40;2.20;;;;;;;23.43;35.44;98892.05;104483;1259;69076;-65
2023/04/25 06:55:32;;;;;;;2.10;1.90;;;;;;;23.52;35.12;98888.37;104349;1254;73132;-63
2023/04/25 06:58:19;;;;;;;;;;;;;;;23.64;35.44;98886.52;104315;1255;60549;-63
2023/04/25 07:01:07;;;;;;;3.70;2.00;;;;;;;23.77;35.20;98886.54;104252;1256;60657;-63
2023/04/25 07:03:35;;;;;;;7.30;2.30;;;;;;;23.85;35.27;98882.98;104259;1254;73142;-64
2023/04/25 07:06:06;;;;;;;2.20;1.80;;;;;;;23.98;35.09;98881.89;104388;1257;70393;-64
2023/04/25 07:08:33;;;;;;;2.10;1.90;;;;;;;24.03;34.95;98879.67;104534;1260;73452;-64
2023/04/25 07:11:00;;;;;;;2.40;2.20;;;;;;;24.11;35.05;98882.27;104296;1276;60558;-63
2023/04/25 07:13:27;;;;;;;1.80;1.70;;;;;;;24.22;35.21;98885.77;104376;1256;60735;-64
2023/04/25 07:15:54;;;;;;;2.00;1.90;;;;;;;24.33;34.94;98883.83;104675;1254;72838;-65
2023/04/25 07:18:23;;;;;;;2.20;1.50;;;;;;;24.42;34.63;98882.45;104509;1252;70258;-64
2023/04/25 07:20:50;;;;;;;2.10;1.80;;;;;;;24.51;34.66;98881.27;104233;1256;72078;-66
2023/04/25 07:23:17;;;;;;;2.00;1.80;;;;;;;24.60;34.39;98880.73;104519;1253;61130;-65
2023/04/25 07:25:45;;;;;;;2.40;1.80;;;;;;;24.70;34.15;98883.08;104467;1254;60852;-67
2023/04/25 07:28:12;;;;;;;;;;;;;;;24.75;34.15;98882.89;104513;1254;74038;-66
2023/04/25 07:30:39;;;;;;;1.90;1.70;;;;;;;24.88;33.74;98881.15;104369;1257;69780;-65
2023/04/25 07:33:06;;;;;;;2.60;1.80;;;;;;;24.87;33.37;98878.63;104471;1254;72923;-65
2023/04/25 07:35:33;;;;;;;3.70;1.80;;;;;;;24.92;33.62;98878.60;104294;1252;60555;-65
2023/04/25 07:38:02;;;;;;;2.00;1.80;;;;;;;25.00;32.96;98880.30;104513;1253;60610;-63
2023/04/25 07:40:30;;;;;;;3.00;2.00;;;;;;;25.05;32.86;98878.37;104361;1253;73376;-64
2023/04/25 07:43:03;;;;;;;3.90;2.20;;;;;;;25.10;32.70;98876.44;104477;1266;69569;-70
2023/04/25 07:45:46;;;;;;;3.30;1.70;;;;;;;25.24;33.04;98877.23;104321;1252;73446;-64
2023/04/25 07:48:20;;;;;;;2.20;2.00;;;;;;;25.32;31.87;98874.89;104645;1254;60590;-66
2023/04/25 07:50:48;;;;;;;3.70;1.80;;;;;;;25.45;31.78;98872.14;104196;1256;60561;-65
2023/04/25 07:53:15;;;;;;;1.80;1.50;;;;;;;25.45;31.90;98869.58;104289;1259;73379;-65
2023/04/25 07:56:11;;;;;;;2.80;1.80;;;;;;;25.46;31.49;98865.77;104332;1260;69691;-63
2023/04/25 07:58:40;;;;;;;2.30;1.80;;;;;;;25.44;31.56;98862.93;104197;1260;72546;-65
2023/04/25 08:01:09;;;;;;;3.00;1.60;;;;;;;25.53;31.55;98861.84;104242;1259;60523;-65
2023/04/25 08:04:03;;;;;;;2.10;1.90;;;;;;;25.66;31.90;98863.23;104389;1259;60536;-64
2023/04/25 08:07:09;;;;;;;1.80;1.70;;;;;;;25.73;31.90;98864.04;104358;1260;74084;-63
2023/04/25 08:09:45;;;;;;;1.80;1.60;;;;;;;25.76;31.62;98858.27;104045;1267;69616;-66
2023/04/25 08:12:19;;;;;;;2.60;1.60;;;;;;;25.85;31.75;98859.31;104149;1260;71839;-65
2023/04/25 08:14:49;;;;;;;2.40;2.10;;;;;;;25.96;31.79;98854.39;103986;1259;60655;-64
2023/04/25 08:17:16;;;;;;;2.40;1.90;;;;;;;26.00;31.30;98853.06;103929;1263;60665;-65
2023/04/25 08:19:43;;;;;;;3.10;1.70;;;;;;;26.09;31.51;98853.48;103915;1262;74229;-64
2023/04/25 08:22:16;;;;;;;2.60;1.50;;;;;;;26.20;31.01;98856.59;104752;1254;70049;-64
2023/04/25 08:24:50;;;;;;;3.40;1.80;;;;;;;26.25;30.83;98858.39;104380;1263;72410;-65
2023/04/25 08:27:18;;;;;;;2.00;1.60;;;;;;;26.22;30.39;98849.82;104528;1260;60577;-65
2023/04/25 08:29:46;;;;;;;2.30;1.90;;;;;;;26.24;30.63;98848.27;104807;1254;60501;-66
2023/04/25 08:32:13;;;;;;;1.60;1.50;;;;;;;26.28;30.70;98839.98;104426;1259;73813;-68
2023/04/25 08:34:46;;;;;;;1.50;1.40;;;;;;;26.37;30.14;98843.71;104400;1261;68947;-68
2023/04/25 08:37:14;;;;;;;3.60;1.70;;;;;;;26.39;30.41;98843.20;104632;1254;72120;-69
2023/04/25 08:39:52;;;;;;;2.90;1.90;;;;;;;26.32;30.10;98842.73;104688;1254;60532;-69
2023/04/25 08:42:24;;;;;;;2.60;1.70;;;;;;;26.27;29.95;98840.34;104400;1254;60542;-72
2023/04/25 08:44:53;;;;;;;2.30;1.80;;;;;;;26.25;30.41;98834.27;104655;1260;72898;-70
2023/04/25 08:47:22;;;;;;;2.60;1.20;;;;;;;26.22;29.62;98836.10;104574;1270;69214;-69
2023/04/25 08:49:54;;;;;;;2.00;1.70;;;;;;;26.28;29.84;98832.81;104593;1258;73591;-69
2023/04/25 08:52:22;;;;;;;1.70;1.30;;;;;;;26.35;29.85;98827.69;104822;1259;61030;-67
2023/04/25 08:54:50;;;;;;;2.40;1.40;;;;;;;26.45;29.69;98827.70;104337;1254;60622;-69
2023/04/25 08:57:17;;;;;;;2.50;1.70;;;;;;;26.49;29.01;98822.77;104851;1256;74276;-68
2023/04/25 08:59:45;;;;;;;;;;;;;;;26.47;29.41;98821.84;104878;1256;70644;-69
2023/04/25 09:02:17;;;;;;;1.10;1.10;;;;;;;26.60;29.07;98820.13;104923;1258;73217;-70
2023/04/25 09:04:47;;;;;;;2.10;1.50;;;;;;;26.72;29.21;98818.27;104591;1257;60549;-68
2023/04/25 09:07:18;;;;;;;2.30;1.40;;;;;;;26.88;28.97;98820.55;104510;1259;60518;-67
2023/04/25 09:09:45;;;;;;;3.30;1.60;;;;;;;26.94;28.84;98823.48;106034;1254;72996;-68
2023/04/25 09:12:20;;;;;;;1.70;1.40;;;;;;;26.95;28.20;98823.77;108175;1254;68884;-69
2023/04/25 09:15:14;;;;;;;5.90;1.20;;;;;;;26.96;28.25;98818.04;105761;1253;71826;-68
2023/04/25 09:17:56;;;;;;;3.60;1.90;;;;;;;26.93;28.44;98817.58;105557;1254;60827;-69
2023/04/25 09:20:25;;;;;;;1.40;1.30;;;;;;;27.06;28.06;98817.38;105369;1259;60441;-68
2023/04/25 09:23:03;;;;;;;1.40;1.30;;;;;;;27.16;27.96;98808.92;105969;1254;72973;-68
2023/04/25 09:25:39;;;;;;;1.40;1.30;;;;;;;27.31;28.04;98807.19;104467;1253;69107;-70
2023/04/25 09:28:06;;;;;;;1.40;1.30;;;;;;;27.49;27.94;98807.67;104937;1253;71699;-70
2023/04/25 09:30:35;;;;;;;1.40;1.20;;;;;;;27.51;27.75;98806.52;104588;1257;60559;-68
2023/04/25 09:33:16;;;;;;;1.50;1.40;;;;;;;27.51;27.30;98804.53;105060;1253;61155;-69
2023/04/25 09:35:52;;;;;;;2.40;1.30;;;;;;;27.55;27.80;98804.15;104597;1254;73312;-69
2023/04/25 09:38:25;;;;;;;2.40;1.30;;;;;;;27.70;27.26;98799.70;104935;1256;70319;-68
2023/04/25 09:41:23;;;;;;;3.00;1.50;;;;;;;27.88;27.28;98796.52;104682;1274;71951;-69
2023/04/25 09:43:50;;;;;;;1.60;1.20;;;;;;;27.95;26.93;98799.30;105046;1252;60703;-72
2023/04/25 09:46:20;;;;;;;1.50;1.30;;;;;;;27.98;26.71;98794.98;104740;1259;61575;-69
2023/04/25 09:48:53;;;;;;;3.40;1.70;;;;;;;28.03;26.56;98787.85;105181;1254;73063;-69
2023/04/25 09:51:30;;;;;;;3.50;2.10;;;;;;;28.05;26.60;98781.72;104651;1257;69227;-69
2023/04/25 09:53:57;;;;;;;1.80;1.60;;;;;;;27.92;25.76;98782.58;105168;1254;72411;-69
2023/04/25 09:56:37;;;;;;;2.70;1.30;;;;;;;27.90;26.35;98779.33;105132;1254;61553;-69
2023/04/25 09:59:06;;;;;;;3.10;1.30;;;;;;;27.91;26.50;98774.39;104808;1254;60449;-69
2023/04/25 10:01:36;;;;;;;1.50;1.40;;;;;;;27.93;26.56;98773.20;105060;1253;73848;-69
2023/04/25 10:04:07;;;;;;;2.30;1.20;;;;;;;27.92;26.31;98767.55;104944;1253;69932;-69
2023/04/25 10:07:07;;;;;;;1.60;1.20;;;;;;;27.88;26.44;98768.83;104404;1257;72912;-68
2023/04/25 10:09:39;;;;;;;1.70;1.60;;;;;;;27.90;26.37;98769.47;104507;1256;60538;-70
2023/04/25 10:12:07;;;;;;;2.00;1.50;;;;;;;28.00;26.36;98767.68;104798;1254;60595;-70
2023/04/25 10:14:34;;;;;;;2.40;1.30;;;;;;;28.01;26.47;98762.48;105267;1253;73571;-69
2023/04/25 10:17:01;;;;;;;1.10;1.00;;;;;;;27.91;26.45;98760.70;104854;1254;70001;-68
2023/04/25 10:19:29;;;;;;;1.30;1.20;;;;;;;27.84;26.63;98757.66;104828;1256;72729;-70
2023/04/25 10:21:59;;;;;;;1.60;1.40;;;;;;;27.87;27.05;98755.23;104864;1263;60530;-69
2023/04/25 10:24:26;;;;;;;3.40;1.40;;;;;;;28.00;26.50;98754.00;104389;1269;59730;-69
2023/04/25 10:26:53;;;;;;;2.00;1.90;;;;;;;28.09;25.74;98752.25;104749;1252;74008;-73
2023/04/25 10:29:23;;;;;;;1.90;1.30;;;;;;;28.18;25.78;98745.45;104459;1254;71091;-69
2023/04/25 10:31:51;;;;;;;2.80;1.50;;;;;;;28.24;25.86;98742.22;104665;1253;72175;-68
2023/04/25 10:34:18;;;;;;;1.50;1.40;;;;;;;28.28;25.68;98740.82;104882;1261;61958;-69
2023/04/25 10:36:52;;;;;;;1.40;1.20;;;;;;;28.28;25.38;98741.25;104266;1266;60229;-71
2023/04/25 10:39:25;;;;;;;1.40;1.30;;;;;;;28.28;25.58;98743.11;104387;1257;74469;-66
2023/04/25 10:41:58;;;;;;;1.70;1.60;;;;;;;28.39;25.40;98741.61;104334;1261;70059;-69
2023/04/25 10:47:36;;;;;;;1.40;1.30;;;;;;;27.23;27.32;98745.56;102848;1291;601589;-67
2023/04/25 10:50:06;;;;;;;2.30;1.40;;;;;;;28.60;25.28;98742.28;106579;1265;60577;-67
2023/04/25 10:52:33;;;;;;;1.50;1.40;;;;;;;28.66;25.58;98738.36;104693;1266;62227;-67
2023/04/25 10:55:02;;;;;;;1.20;1.20;;;;;;;28.64;25.05;98736.09;103732;1271;74487;-67
2023/04/25 10:57:36;;;;;;;2.80;1.30;;;;;;;28.60;24.79;98735.67;103491;1273;72052;-66
2023/04/25 11:00:05;;;;;;;2.10;1.30;;;;;;;28.35;25.26;98728.17;103431;1269;403509;-67
2023/04/25 11:02:32;;;;;;;2.90;1.70;;;;;;;28.44;25.69;98733.56;103983;1268;61904;-65
2023/04/25 11:04:59;;;;;;;3.80;2.10;;;;;;;28.52;25.40;98732.65;103977;1270;62829;-65
2023/04/25 11:07:56;;;;;;;2.10;1.50;;;;;;;28.54;25.35;98732.33;104033;1264;72690;-65
2023/04/25 11:10:36;;;;;;;2.10;1.30;;;;;;;28.48;25.13;98730.29;104364;1264;69525;-67
2023/04/25 11:13:04;;;;;;;1.50;1.40;;;;;;;28.28;25.48;98718.45;104273;1264;74936;-67
2023/04/25 11:15:32;;;;;;;2.50;1.30;;;;;;;28.22;25.34;98718.52;104238;1256;60598;-67
2023/04/25 11:17:59;;;;;;;2.20;1.60;;;;;;;28.32;25.58;98715.02;104488;1258;60527;-65
2023/04/25 11:20:28;;;;;;;1.10;1.10;;;;;;;28.39;25.25;98715.95;104288;1264;75468;-66
2023/04/25 11:22:59;;;;;;;1.20;1.10;;;;;;;28.49;25.37;98714.58;104183;1275;69820;-65
2023/04/25 11:25:26;;;;;;;1.50;1.20;;;;;;;28.55;25.06;98707.15;104235;1263;72760;-64
2023/04/25 11:27:58;;;;;;;2.90;1.20;;;;;;;28.55;24.84;98703.55;104068;1258;62031;-66
2023/04/25 11:30:25;;;;;;;2.20;1.20;;;;;;;28.49;24.97;98702.71;104275;1258;60648;-64
2023/04/25 11:32:53;;;;;;;3.40;1.30;;;;;;;28.45;24.82;98700.51;104292;1258;73130;-67
2023/04/25 11:35:22;;;;;;;1.60;1.50;;;;;;;28.42;24.79;98699.29;104621;1261;71041;-66
2023/04/25 11:37:50;;;;;;;2.10;1.20;;;;;;;28.44;24.71;98695.67;104667;1255;72953;-67
2023/04/25 11:40:18;;;;;;;3.20;1.00;;;;;;;28.33;24.93;98694.10;104455;1267;61422;-67
2023/04/25 11:42:46;;;;;;;1.40;1.20;;;;;;;28.28;25.04;98688.44;104579;1253;60826;-67
2023/04/25 11:45:13;;;;;;;1.50;1.30;;;;;;;28.32;25.27;98687.23;104565;1265;73492;-66
2023/04/25 11:47:40;;;;;;;1.40;1.30;;;;;;;28.53;25.12;98689.77;104664;1257;70631;-68
2023/04/25 11:50:09;;;;;;;2.20;1.40;;;;;;;28.69;25.00;98684.40;104558;1256;73894;-67